Time;durP1;ratioP1;P1;durP2;ratioP2;P2;SDS_P1;SDS_P2;PMS_P1;PMS_P2;Temp;Humidity;BMP_temperature;BMP_pressure;BME280_temperature;BME280_humidity;BME280_pressure;Samples;Min_cycle;Max_cycle;Signal;HPM_P1;HPM_P2
2021/05/11 00:01:33;;;;;;;5.60;4.10;;;;;;;;;;5096639;28;20020;-69
2021/05/11 00:03:59;;;;;;;5.80;4.35;;;;;;;;;;5096628;28;20012;-69
2021/05/11 00:06:24;;;;;;;6.10;4.63;;;;;;;;;;5096538;28;20027;-69
2021/05/11 00:08:49;;;;;;;4.97;4.35;;;;;;;;;;5096465;28;20020;-69
2021/05/11 00:11:15;;;;;;;6.20;4.35;;;;;;;;;;5096598;28;20031;-68
2021/05/11 00:13:41;;;;;;;4.88;4.38;;;;;;;;;;5096456;28;20016;-68
2021/05/11 00:16:06;;;;;;;6.57;4.60;;;;;;;;;;5094484;28;20032;-68
2021/05/11 00:18:33;;;;;;;4.90;4.40;;;;;;;;;;5096624;28;20137;-68
2021/05/11 00:20:59;;;;;;;7.20;4.97;;;;;;;;;;5094878;28;20032;-68
2021/05/11 00:23:25;;;;;;;5.03;4.47;;;;;;;;;;5096386;28;20031;-68
2021/05/11 00:25:50;;;;;;;5.88;4.65;;;;;;;;;;5096273;28;20034;-67
2021/05/11 00:28:16;;;;;;;5.72;4.20;;;;;;;;;;5096375;28;20424;-62
2021/05/11 00:30:41;;;;;;;7.10;4.35;;;;;;;;;;5095127;28;20060;-62
2021/05/11 00:33:06;;;;;;;4.25;3.70;;;;;;;;;;5096129;28;20069;-62
2021/05/11 00:35:32;;;;;;;5.32;4.07;;;;;;;;;;5096269;28;20028;-62
2021/05/11 00:37:57;;;;;;;7.75;4.32;;;;;;;;;;5093904;28;20488;-62
2021/05/11 00:40:23;;;;;;;4.95;4.45;;;;;;;;;;5095746;28;20027;-62
2021/05/11 00:42:48;;;;;;;5.57;4.13;;;;;;;;;;5096057;28;20055;-62
2021/05/11 00:45:14;;;;;;;6.78;4.50;;;;;;;;;;5094260;28;20043;-62
2021/05/11 00:47:40;;;;;;;6.70;4.60;;;;;;;;;;5094652;28;20535;-62
2021/05/11 00:50:06;;;;;;;5.28;4.30;;;;;;;;;;5094681;28;20032;-62
2021/05/11 00:52:32;;;;;;;5.95;4.43;;;;;;;;;;5094354;28;20028;-62
2021/05/11 00:54:57;;;;;;;6.60;4.20;;;;;;;;;;5095352;28;20161;-62
2021/05/11 00:57:23;;;;;;;4.95;4.40;;;;;;;;;;5094025;28;20482;-62
2021/05/11 00:59:51;;;;;;;8.05;4.47;;;;;;;;;;5094017;28;20028;-62
2021/05/11 01:02:16;;;;;;;6.45;4.68;;;;;;;;;;5095238;28;20488;-62
2021/05/11 01:04:41;;;;;;;5.55;4.50;;;;;;;;;;5094959;28;20032;-62
2021/05/11 01:07:07;;;;;;;5.43;4.45;;;;;;;;;;5095077;28;20382;-62
2021/05/11 01:09:33;;;;;;;5.88;4.88;;;;;;;;;;5093715;28;20024;-62
2021/05/11 01:11:59;;;;;;;5.93;4.57;;;;;;;;;;5093297;28;20016;-62
2021/05/11 01:14:26;;;;;;;6.40;5.40;;;;;;;;;;5095016;28;20051;-62
2021/05/11 01:16:56;;;;;;;5.05;4.50;;;;;;;;;;5094860;28;20016;-62
2021/05/11 01:24:54;;;;;;;7.78;4.85;;;;;;;;;;5094860;28;20039;-68
2021/05/11 01:49:14;;;;;;;3.45;3.15;;;;;;;;;;5094573;28;20130;-70
2021/05/11 02:23:38;;;;;;;3.88;2.92;;;;;;;;;;5094221;28;20111;-68
2021/05/11 02:26:04;;;;;;;3.92;2.90;;;;;;;;;;5094217;28;20047;-68
2021/05/11 02:28:29;;;;;;;3.65;3.20;;;;;;;;;;5093892;28;20066;-62
2021/05/11 02:30:55;;;;;;;4.78;3.20;;;;;;;;;;5093807;28;20028;-62
2021/05/11 02:33:21;;;;;;;5.53;3.42;;;;;;;;;;5092658;28;20077;-62
2021/05/11 02:35:46;;;;;;;7.00;3.58;;;;;;;;;;5093713;28;20161;-62
2021/05/11 02:38:12;;;;;;;3.25;2.97;;;;;;;;;;5093883;28;20229;-62
2021/05/11 02:40:38;;;;;;;5.95;3.40;;;;;;;;;;5093832;28;20020;-62
2021/05/11 02:43:07;;;;;;;4.72;3.42;;;;;;;;;;5093711;28;20020;-62
2021/05/11 02:45:34;;;;;;;5.15;3.20;;;;;;;;;;5093688;28;20051;-62
2021/05/11 02:48:00;;;;;;;3.38;3.08;;;;;;;;;;5093845;28;20115;-62
2021/05/11 02:50:26;;;;;;;3.53;3.25;;;;;;;;;;5093599;28;20056;-62
2021/05/11 02:52:52;;;;;;;3.72;3.40;;;;;;;;;;5093559;28;20059;-62
2021/05/11 02:55:18;;;;;;;4.32;3.47;;;;;;;;;;5093432;28;20100;-62
2021/05/11 02:57:44;;;;;;;4.40;3.08;;;;;;;;;;5093552;28;20020;-62
2021/05/11 03:00:11;;;;;;;4.80;3.60;;;;;;;;;;5094006;28;20024;-62
2021/05/11 03:02:37;;;;;;;3.70;2.90;;;;;;;;;;5098827;28;20114;-62
2021/05/11 03:05:04;;;;;;;5.20;3.08;;;;;;;;;;5099615;28;20099;-62
2021/05/11 03:07:30;;;;;;;5.85;3.30;;;;;;;;;;5100560;28;20028;-62
2021/05/11 03:09:55;;;;;;;3.60;3.30;;;;;;;;;;5100232;28;20024;-62
2021/05/11 03:12:21;;;;;;;4.15;3.63;;;;;;;;;;5100278;28;20063;-62
2021/05/11 03:14:46;;;;;;;5.25;3.10;;;;;;;;;;5100146;28;20066;-62
2021/05/11 03:17:12;;;;;;;3.75;3.38;;;;;;;;;;5100142;28;20466;-62
2021/05/11 03:19:37;;;;;;;3.97;3.10;;;;;;;;;;5100186;28;20028;-61
2021/05/11 03:22:03;;;;;;;4.15;2.95;;;;;;;;;;5099931;28;20024;-61
2021/05/11 03:24:29;;;;;;;3.05;2.75;;;;;;;;;;5098951;28;20378;-61
2021/05/11 03:26:55;;;;;;;4.30;3.00;;;;;;;;;;5099822;28;20163;-61
2021/05/11 03:29:21;;;;;;;4.30;2.97;;;;;;;;;;5098715;28;20024;-62
2021/05/11 03:31:47;;;;;;;3.20;2.92;;;;;;;;;;5100042;28;20158;-62
2021/05/11 03:34:12;;;;;;;3.28;2.97;;;;;;;;;;5099724;28;20149;-62
2021/05/11 03:36:37;;;;;;;2.97;2.78;;;;;;;;;;5099848;28;20077;-62
2021/05/11 03:39:07;;;;;;;3.40;3.10;;;;;;;;;;5100177;28;20019;-62
2021/05/11 03:41:42;;;;;;;3.60;3.25;;;;;;;;;;5100100;28;20104;-62
2021/05/11 03:44:14;;;;;;;7.25;3.25;;;;;;;;;;5098231;28;20040;-62
2021/05/11 03:46:40;;;;;;;2.95;2.50;;;;;;;;;;5098626;28;20106;-62
2021/05/11 03:49:06;;;;;;;3.90;2.55;;;;;;;;;;5099655;28;20558;-62
2021/05/11 03:51:32;;;;;;;2.70;2.50;;;;;;;;;;5099704;28;20024;-61
2021/05/11 03:54:00;;;;;;;5.03;3.08;;;;;;;;;;5099759;28;20016;-62
2021/05/11 03:56:26;;;;;;;2.80;2.40;;;;;;;;;;5099776;28;20038;-62
2021/05/11 03:58:52;;;;;;;3.15;2.15;;;;;;;;;;5099108;28;20095;-62
2021/05/11 04:01:18;;;;;;;4.00;2.50;;;;;;;;;;5099678;28;20032;-62
2021/05/11 04:03:43;;;;;;;4.05;2.45;;;;;;;;;;5099724;28;20012;-62
2021/05/11 04:06:09;;;;;;;3.38;2.60;;;;;;;;;;5099660;28;20444;-62
2021/05/11 04:08:54;;;;;;;4.72;2.83;;;;;;;;;;5099642;28;20038;-62
2021/05/11 04:14:16;;;;;;;3.63;2.60;;;;;;;;;;5095446;28;20024;-62
2021/05/11 04:16:42;;;;;;;3.58;2.40;;;;;;;;;;5096812;28;20039;-62
2021/05/11 04:19:11;;;;;;;3.80;2.60;;;;;;;;;;5095937;28;20020;-62
2021/05/11 04:21:36;;;;;;;3.78;2.72;;;;;;;;;;5095226;28;20059;-63
2021/05/11 04:24:02;;;;;;;5.22;2.58;;;;;;;;;;5096209;28;20055;-62
2021/05/11 04:26:28;;;;;;;2.40;2.20;;;;;;;;;;5096058;28;20035;-62
2021/05/11 04:28:53;;;;;;;3.85;2.55;;;;;;;;;;5094846;28;20035;-62
2021/05/11 04:31:19;;;;;;;4.65;2.35;;;;;;;;;;5096158;28;20389;-62
2021/05/11 04:33:45;;;;;;;4.18;2.92;;;;;;;;;;5096103;28;20016;-62
2021/05/11 04:36:10;;;;;;;5.18;2.97;;;;;;;;;;5094781;28;20119;-62
2021/05/11 04:38:38;;;;;;;3.83;2.22;;;;;;;;;;5095351;28;20024;-62
2021/05/11 04:41:04;;;;;;;2.55;2.35;;;;;;;;;;5095625;28;20060;-62
2021/05/11 04:43:31;;;;;;;5.43;2.60;;;;;;;;;;5095823;28;20062;-62
2021/05/11 04:48:41;;;;;;;3.60;2.53;;;;;;;;;;5095847;28;20055;-62
2021/05/11 04:51:06;;;;;;;3.30;2.10;;;;;;;;;;5095303;28;20035;-62
2021/05/11 04:53:32;;;;;;;2.53;1.98;;;;;;;;;;5095632;28;20055;-62
2021/05/11 04:55:57;;;;;;;2.75;2.20;;;;;;;;;;5095296;28;20016;-62
2021/05/11 04:58:23;;;;;;;3.15;2.10;;;;;;;;;;5095544;28;20035;-62
2021/05/11 05:00:50;;;;;;;4.35;2.05;;;;;;;;;;5095481;28;20473;-61
2021/05/11 05:03:17;;;;;;;2.47;2.28;;;;;;;;;;5095435;28;20020;-62
2021/05/11 05:05:45;;;;;;;2.70;2.50;;;;;;;;;;5095444;28;20020;-62
2021/05/11 05:08:11;;;;;;;2.90;2.53;;;;;;;;;;5095178;28;20478;-61
2021/05/11 05:10:37;;;;;;;2.85;2.60;;;;;;;;;;5095222;28;20024;-63
2021/05/11 05:13:02;;;;;;;6.90;2.70;;;;;;;;;;5095274;28;20028;-62
2021/05/11 05:15:28;;;;;;;3.65;2.55;;;;;;;;;;5094936;28;20339;-62
2021/05/11 05:17:53;;;;;;;2.90;2.47;;;;;;;;;;5094944;28;20021;-62
2021/05/11 05:20:19;;;;;;;6.32;2.50;;;;;;;;;;5093708;28;20020;-62
2021/05/11 05:22:44;;;;;;;4.70;2.83;;;;;;;;;;5094824;28;20424;-62
2021/05/11 05:25:14;;;;;;;3.20;2.90;;;;;;;;;;5094479;28;20058;-62
2021/05/11 05:27:47;;;;;;;5.85;3.00;;;;;;;;;;5093937;28;20040;-62
2021/05/11 05:30:13;;;;;;;5.18;2.55;;;;;;;;;;5095071;28;20028;-62
2021/05/11 05:32:39;;;;;;;4.65;2.70;;;;;;;;;;5094981;28;20028;-62
2021/05/11 05:35:05;;;;;;;4.40;2.38;;;;;;;;;;5093671;28;20085;-62
2021/05/11 05:37:30;;;;;;;5.90;2.58;;;;;;;;;;5093709;28;20016;-63
2021/05/11 05:39:59;;;;;;;7.60;2.70;;;;;;;;;;5094753;28;20024;-62
2021/05/11 05:42:24;;;;;;;4.50;2.40;;;;;;;;;;5094808;28;20036;-62
2021/05/11 05:44:50;;;;;;;6.00;2.78;;;;;;;;;;5093858;28;20454;-62
2021/05/11 05:47:17;;;;;;;3.05;2.13;;;;;;;;;;5094027;28;20024;-62
2021/05/11 05:49:47;;;;;;;3.08;2.78;;;;;;;;;;5094811;28;20056;-62
2021/05/11 05:52:21;;;;;;;4.57;2.47;;;;;;;;;;5094348;28;20369;-62
2021/05/11 05:54:47;;;;;;;4.78;2.50;;;;;;;;;;5094415;28;20482;-62
2021/05/11 05:57:12;;;;;;;2.35;2.15;;;;;;;;;;5094348;28;20023;-62
2021/05/11 05:59:42;;;;;;;3.15;2.10;;;;;;;;;;5094496;28;20031;-62
2021/05/11 06:02:11;;;;;;;4.15;2.33;;;;;;;;;;5094607;28;20023;-62
2021/05/11 06:04:38;;;;;;;3.65;2.42;;;;;;;;;;5093221;28;20035;-62
2021/05/11 06:07:04;;;;;;;7.22;2.60;;;;;;;;;;5094402;28;20470;-62
2021/05/11 06:09:30;;;;;;;3.53;2.38;;;;;;;;;;5094099;28;20024;-62
2021/05/11 06:12:03;;;;;;;2.95;2.00;;;;;;;;;;5093914;28;20047;-62
2021/05/11 06:17:21;;;;;;;3.67;2.10;;;;;;;;;;5093936;28;20028;-62
2021/05/11 06:19:47;;;;;;;3.42;2.20;;;;;;;;;;5094240;28;20432;-62
2021/05/11 06:22:13;;;;;;;3.00;2.10;;;;;;;;;;5094209;28;20016;-62
2021/05/11 06:24:39;;;;;;;7.80;1.95;;;;;;;;;;5093899;28;20161;-62
2021/05/11 06:27:06;;;;;;;5.07;2.22;;;;;;;;;;5092536;28;20497;-68
2021/05/11 06:29:34;;;;;;;3.50;1.90;;;;;;;;;;5093942;28;20028;-69
2021/05/11 06:31:59;;;;;;;3.60;1.80;;;;;;;;;;5093837;28;20522;-68
2021/05/11 06:34:24;;;;;;;3.78;1.90;;;;;;;;;;5093656;28;20024;-68
2021/05/11 06:36:50;;;;;;;2.97;2.10;;;;;;;;;;5092689;28;20473;-68
2021/05/11 06:39:16;;;;;;;4.72;1.60;;;;;;;;;;5093291;28;20069;-69
2021/05/11 06:41:45;;;;;;;3.05;1.48;;;;;;;;;;5093168;28;20065;-68
2021/05/11 06:44:25;;;;;;;3.30;1.67;;;;;;;;;;5093042;28;20109;-68
2021/05/11 06:49:32;;;;;;;2.53;1.48;;;;;;;;;;5093781;28;20382;-63
2021/05/11 06:54:42;;;;;;;2.28;1.60;;;;;;;;;;5093695;28;20362;-64
2021/05/11 06:57:08;;;;;;;1.70;1.30;;;;;;;;;;5093579;28;20421;-63
2021/05/11 06:59:33;;;;;;;2.65;1.40;;;;;;;;;;5093323;28;20107;-63
2021/05/11 07:02:00;;;;;;;3.70;1.30;;;;;;;;;;5093523;28;20018;-64
2021/05/11 07:04:26;;;;;;;6.35;1.70;;;;;;;;;;5093577;28;20069;-64
2021/05/11 07:06:51;;;;;;;1.92;1.38;;;;;;;;;;5093609;28;20024;-63
2021/05/11 07:09:24;;;;;;;1.77;1.30;;;;;;;;;;5093481;28;20028;-63
2021/05/11 07:14:15;;;;;;;1.50;1.40;;;;;;;;;;5093241;28;20012;-63
2021/05/11 07:16:41;;;;;;;2.17;1.50;;;;;;;;;;5093255;28;20114;-63
2021/05/11 07:19:06;;;;;;;1.55;1.45;;;;;;;;;;5093530;28;20099;-63
2021/05/11 07:21:31;;;;;;;1.88;1.20;;;;;;;;;;5093153;28;20031;-63
2021/05/11 07:23:58;;;;;;;3.38;1.23;;;;;;;;;;5093379;28;20020;-63
2021/05/11 07:26:27;;;;;;;3.08;1.50;;;;;;;;;;5093104;28;20755;-63
2021/05/11 07:29:11;;;;;;;3.10;1.52;;;;;;;;;;5093144;28;20031;-63
2021/05/11 07:31:38;;;;;;;1.60;1.50;;;;;;;;;;5093224;28;20390;-63
2021/05/11 07:34:06;;;;;;;3.30;1.48;;;;;;;;;;5091365;28;20484;-63
2021/05/11 07:36:33;;;;;;;1.67;1.40;;;;;;;;;;5092200;28;20369;-63
2021/05/11 07:38:58;;;;;;;2.92;1.45;;;;;;;;;;5093380;28;20062;-63
2021/05/11 07:41:24;;;;;;;1.75;1.30;;;;;;;;;;5093341;28;20446;-63
2021/05/11 07:43:52;;;;;;;3.97;1.58;;;;;;;;;;5092734;28;20020;-63
2021/05/11 07:46:34;;;;;;;2.33;1.48;;;;;;;;;;5093124;28;20024;-63
2021/05/11 08:15:41;;;;;;;1.25;1.15;;;;;;;;;;5096670;28;20032;-64
2021/05/11 08:28:56;;;;;;;2.08;1.88;;;;;;;;;;5095932;28;20039;-63
2021/05/11 08:31:21;;;;;;;1.60;1.35;;;;;;;;;;5096134;28;20020;-64
2021/05/11 08:33:46;;;;;;;1.52;1.40;;;;;;;;;;5096123;28;20074;-63
2021/05/11 08:36:12;;;;;;;3.00;2.05;;;;;;;;;;5096053;28;20523;-64
2021/05/11 08:38:37;;;;;;;3.10;1.95;;;;;;;;;;5095921;28;20020;-64
2021/05/11 08:41:03;;;;;;;3.35;2.20;;;;;;;;;;5096043;28;20070;-64
2021/05/11 08:43:33;;;;;;;2.45;1.65;;;;;;;;;;5095976;28;20047;-64
2021/05/11 08:46:06;;;;;;;4.95;2.10;;;;;;;;;;5095687;28;20044;-64
2021/05/11 08:48:33;;;;;;;2.17;1.90;;;;;;;;;;5095774;28;20058;-64
2021/05/11 08:51:06;;;;;;;2.03;1.80;;;;;;;;;;5095739;28;20020;-64
2021/05/11 09:15:03;;;;;;;2.45;1.70;;;;;;;;;;4786507;29;20609;-64
2021/05/11 09:57:09;;;;;;;1.65;1.55;;;;;;;;;;5131586;28;20057;-64
2021/05/11 10:49:29;;;;;;;3.90;1.95;;;;;;;;;;5116820;28;20494;-61
2021/05/11 10:52:19;;;;;;;2.83;1.90;;;;;;;;;;5116486;28;20465;-61
2021/05/11 10:54:51;;;;;;;1.77;1.55;;;;;;;;;;5116631;28;20055;-61
2021/05/11 10:57:33;;;;;;;3.47;1.83;;;;;;;;;;5116556;28;20035;-61
2021/05/11 11:00:31;;;;;;;4.10;1.75;;;;;;;;;;5116387;28;20028;-61
2021/05/11 11:03:13;;;;;;;2.75;2.08;;;;;;;;;;5115099;28;20055;-61
2021/05/11 11:06:02;;;;;;;1.63;1.52;;;;;;;;;;5114915;28;20118;-61
2021/05/11 11:08:41;;;;;;;3.15;1.80;;;;;;;;;;5116306;28;20042;-61
2021/05/11 11:11:39;;;;;;;4.47;1.90;;;;;;;;;;5116051;28;20071;-61
2021/05/11 11:13:58;;;;;;;4.28;2.08;;;;;;;;;;5113213;28;20038;-61
2021/05/11 11:16:25;;;;;;;3.53;1.90;;;;;;;;;;5116182;28;20099;-61
2021/05/11 11:18:50;;;;;;;2.80;1.90;;;;;;;;;;5114495;28;20034;-62
2021/05/11 11:23:43;;;;;;;3.70;1.90;;;;;;;;;;5116174;28;20049;-62
2021/05/11 11:26:10;;;;;;;6.80;2.20;;;;;;;;;;5114252;28;20488;-63
2021/05/11 11:28:36;;;;;;;1.70;1.60;;;;;;;;;;5115859;28;20488;-62
2021/05/11 11:31:02;;;;;;;3.40;1.80;;;;;;;;;;5115447;28;20028;-62
2021/05/11 11:33:28;;;;;;;4.28;1.85;;;;;;;;;;5115878;28;20477;-62
2021/05/11 11:35:53;;;;;;;5.18;2.08;;;;;;;;;;5115915;28;20042;-61
2021/05/11 11:38:20;;;;;;;1.98;1.83;;;;;;;;;;5114213;28;20019;-62
2021/05/11 11:40:45;;;;;;;4.60;2.20;;;;;;;;;;5114749;28;20019;-62
2021/05/11 11:43:11;;;;;;;5.35;2.03;;;;;;;;;;5114999;28;20068;-62
2021/05/11 11:45:38;;;;;;;4.22;1.90;;;;;;;;;;5115315;28;20019;-62
2021/05/11 11:48:04;;;;;;;4.47;1.98;;;;;;;;;;5115571;28;20032;-63
2021/05/11 11:50:35;;;;;;;3.72;2.05;;;;;;;;;;5115370;28;20027;-62
2021/05/11 11:53:07;;;;;;;2.05;1.67;;;;;;;;;;5115210;28;20028;-62
2021/05/11 11:58:01;;;;;;;1.77;1.67;;;;;;;;;;5115400;28;20019;-62
2021/05/11 12:00:32;;;;;;;2.00;1.80;;;;;;;;;;5114839;28;20031;-62
2021/05/11 12:03:01;;;;;;;2.10;1.90;;;;;;;;;;5114114;28;20027;-62
2021/05/11 12:05:30;;;;;;;1.65;1.55;;;;;;;;;;5114522;28;20036;-62
2021/05/11 12:10:25;;;;;;;2.35;1.42;;;;;;;;;;5115147;28;20047;-61
2021/05/11 12:12:51;;;;;;;3.10;1.80;;;;;;;;;;5115091;28;20027;-62
2021/05/11 12:15:21;;;;;;;3.05;1.42;;;;;;;;;;5114913;28;20031;-62
2021/05/11 12:18:02;;;;;;;2.45;2.17;;;;;;;;;;5113657;28;20039;-62
2021/05/11 12:20:28;;;;;;;5.82;1.90;;;;;;;;;;5115076;27;20053;-61
2021/05/11 12:23:03;;;;;;;2.05;1.60;;;;;;;;;;5114256;28;20076;-61
2021/05/11 12:25:29;;;;;;;2.38;1.77;;;;;;;;;;5114722;28;20035;-62
2021/05/11 12:27:57;;;;;;;3.25;1.70;;;;;;;;;;5113484;28;20026;-62
2021/05/11 12:30:35;;;;;;;2.67;1.90;;;;;;;;;;5113202;28;20036;-62
2021/05/11 12:33:04;;;;;;;3.85;1.70;;;;;;;;;;5096404;28;20458;-62
2021/05/11 12:35:30;;;;;;;3.10;1.90;;;;;;;;;;5114740;28;20546;-62
2021/05/11 12:37:57;;;;;;;3.83;1.92;;;;;;;;;;5114615;28;20028;-62
2021/05/11 12:40:28;;;;;;;4.18;2.05;;;;;;;;;;5113342;28;20027;-62
2021/05/11 12:42:56;;;;;;;3.70;1.95;;;;;;;;;;5114678;28;20031;-62
2021/05/11 12:45:21;;;;;;;3.45;1.80;;;;;;;;;;5114343;28;20016;-62
2021/05/11 12:48:02;;;;;;;4.05;1.80;;;;;;;;;;5114495;28;20032;-62
2021/05/11 12:50:33;;;;;;;3.03;1.50;;;;;;;;;;5114290;28;20461;-62
2021/05/11 12:53:06;;;;;;;3.60;1.70;;;;;;;;;;5113380;28;20015;-62
2021/05/11 12:59:22;;;;;;;2.28;1.67;;;;;;;;;;5113025;28;20023;-62
2021/05/11 13:01:25;;;;;;;3.30;1.70;;;;;;;;;;5103308;28;20043;-62
2021/05/11 13:04:20;;;;;;;2.92;1.58;;;;;;;;;;5114103;28;20031;-61
2021/05/11 13:23:06;;;;;;;1.63;1.50;;;;;;;;;;5113871;28;20393;-62
2021/05/11 13:25:37;;;;;;;3.80;1.80;;;;;;;;;;5114282;28;20107;-62
2021/05/11 13:33:18;;;;;;;3.38;2.00;;;;;;;;;;5113836;28;20423;-62
2021/05/11 13:35:43;;;;;;;2.42;1.60;;;;;;;;;;5113929;28;20043;-62
2021/05/11 13:38:09;;;;;;;6.40;2.05;;;;;;;;;;5112704;28;20457;-62
2021/05/11 13:40:34;;;;;;;6.35;2.28;;;;;;;;;;5113761;28;20057;-62
2021/05/11 13:43:00;;;;;;;2.97;2.22;;;;;;;;;;5112580;28;20331;-62
2021/05/11 13:45:26;;;;;;;3.20;2.28;;;;;;;;;;5113861;28;20047;-62
2021/05/11 13:48:13;;;;;;;3.65;2.08;;;;;;;;;;5113928;28;20050;-61
2021/05/11 13:53:26;;;;;;;2.92;1.80;;;;;;;;;;5113858;28;20051;-62
2021/05/11 14:04:06;;;;;;;5.15;2.17;;;;;;;;;;5113758;28;20033;-62
2021/05/11 14:06:31;;;;;;;2.58;1.85;;;;;;;;;;5113431;28;20084;-62
2021/05/11 14:08:56;;;;;;;4.18;2.30;;;;;;;;;;5111752;28;20032;-62
2021/05/11 14:11:22;;;;;;;4.45;2.92;;;;;;;;;;5113629;28;20027;-62
2021/05/11 14:13:48;;;;;;;6.15;3.92;;;;;;;;;;5095262;28;20462;-62
2021/05/11 14:16:13;;;;;;;8.05;3.45;;;;;;;;;;5113446;28;20384;-62
2021/05/11 14:18:39;;;;;;;6.00;4.10;;;;;;;;;;5115196;28;20031;-61
2021/05/11 14:21:05;;;;;;;9.48;3.78;;;;;;;;;;5117320;28;20403;-62
2021/05/11 14:23:32;;;;;;;6.53;3.60;;;;;;;;;;5115845;28;20032;-61
2021/05/11 14:25:57;;;;;;;4.20;2.55;;;;;;;;;;5117084;28;20023;-62
2021/05/11 14:28:23;;;;;;;3.33;1.77;;;;;;;;;;5117164;28;20034;-62
2021/05/11 14:30:49;;;;;;;3.05;2.10;;;;;;;;;;5116971;28;20462;-62
2021/05/11 14:33:14;;;;;;;2.65;1.80;;;;;;;;;;5117276;28;20028;-62
2021/05/11 14:35:40;;;;;;;5.57;2.08;;;;;;;;;;5116986;28;20465;-62
2021/05/11 14:38:05;;;;;;;5.57;1.85;;;;;;;;;;5117149;28;20035;-62
2021/05/11 14:40:31;;;;;;;3.40;2.25;;;;;;;;;;5116890;28;20468;-62
2021/05/11 14:42:57;;;;;;;3.05;1.80;;;;;;;;;;5115497;28;20023;-62
2021/05/11 14:45:22;;;;;;;5.03;2.03;;;;;;;;;;5116982;28;20428;-62
2021/05/11 14:47:48;;;;;;;2.92;1.95;;;;;;;;;;5116938;28;20085;-62
2021/05/11 14:50:14;;;;;;;4.38;1.98;;;;;;;;;;5116862;28;20413;-62
2021/05/11 14:52:40;;;;;;;3.72;1.73;;;;;;;;;;5116753;28;20047;-62
2021/05/11 14:55:06;;;;;;;2.85;1.63;;;;;;;;;;5116633;28;20031;-62
2021/05/11 14:57:32;;;;;;;5.53;1.98;;;;;;;;;;5116443;28;20024;-62
2021/05/11 14:59:57;;;;;;;3.88;1.70;;;;;;;;;;5116197;28;20026;-62
2021/05/11 15:02:23;;;;;;;3.33;1.83;;;;;;;;;;5116345;28;20023;-62
2021/05/11 15:04:48;;;;;;;5.75;2.03;;;;;;;;;;5115267;28;20038;-61
2021/05/11 15:07:14;;;;;;;3.75;2.25;;;;;;;;;;5116591;28;20020;-61
2021/05/11 15:09:39;;;;;;;3.72;1.95;;;;;;;;;;5116465;28;20018;-62
2021/05/11 15:12:05;;;;;;;5.13;2.00;;;;;;;;;;5097995;28;20088;-62
2021/05/11 15:14:31;;;;;;;2.78;1.80;;;;;;;;;;5116163;28;20020;-62
2021/05/11 15:19:57;;;;;;;7.38;1.90;;;;;;;;;;5092346;28;20093;-62
2021/05/11 15:22:23;;;;;;;3.40;1.70;;;;;;;;;;5116086;28;20016;-61
2021/05/11 15:24:49;;;;;;;2.13;1.90;;;;;;;;;;5114947;28;20027;-62
2021/05/11 15:27:15;;;;;;;5.88;2.28;;;;;;;;;;5115944;28;20015;-63
2021/05/11 15:29:41;;;;;;;3.40;1.90;;;;;;;;;;5115934;28;20024;-64
2021/05/11 15:32:26;;;;;;;2.58;2.13;;;;;;;;;;5115408;28;20466;-64
2021/05/11 15:34:52;;;;;;;3.55;2.05;;;;;;;;;;5115825;28;20423;-64
2021/05/11 15:37:17;;;;;;;7.00;2.03;;;;;;;;;;5115873;27;20020;-64
2021/05/11 15:39:44;;;;;;;2.63;1.95;;;;;;;;;;5114485;28;20023;-64
2021/05/11 15:42:10;;;;;;;4.88;2.08;;;;;;;;;;5115814;28;20024;-64
2021/05/11 15:44:36;;;;;;;3.63;1.92;;;;;;;;;;5115639;28;20477;-64
2021/05/11 15:47:02;;;;;;;4.40;1.85;;;;;;;;;;5115489;28;20011;-64
2021/05/11 15:49:27;;;;;;;3.17;1.90;;;;;;;;;;5115223;28;20059;-62
2021/05/11 15:51:53;;;;;;;1.98;1.88;;;;;;;;;;5115496;28;20012;-61
2021/05/11 15:54:18;;;;;;;2.33;1.67;;;;;;;;;;5115617;28;20047;-61
2021/05/11 15:56:44;;;;;;;3.75;1.88;;;;;;;;;;5113791;28;20384;-63
2021/05/11 15:59:11;;;;;;;3.92;2.08;;;;;;;;;;5115334;28;20081;-64
2021/05/11 16:01:36;;;;;;;2.60;1.83;;;;;;;;;;5115146;28;20081;-64
2021/05/11 16:04:02;;;;;;;3.03;2.13;;;;;;;;;;5115189;28;20031;-64
2021/05/11 16:06:27;;;;;;;5.72;2.00;;;;;;;;;;5113800;28;20019;-64
2021/05/11 16:08:53;;;;;;;5.75;2.17;;;;;;;;;;5115197;28;20370;-64
2021/05/11 16:11:18;;;;;;;4.72;2.33;;;;;;;;;;5114996;28;20065;-64
2021/05/11 16:13:44;;;;;;;1.80;1.70;;;;;;;;;;5115232;28;20106;-64
2021/05/11 16:16:10;;;;;;;1.88;1.70;;;;;;;;;;5115080;28;20015;-64
2021/05/11 16:18:38;;;;;;;5.05;2.13;;;;;;;;;;5114818;28;20114;-64
2021/05/11 16:21:03;;;;;;;2.83;1.95;;;;;;;;;;5115341;28;20011;-64
2021/05/11 16:23:29;;;;;;;2.55;1.98;;;;;;;;;;5114847;28;20518;-62
2021/05/11 16:25:54;;;;;;;4.10;2.05;;;;;;;;;;5115012;28;20016;-62
2021/05/11 16:28:20;;;;;;;2.85;2.13;;;;;;;;;;5114930;28;20035;-62
2021/05/11 16:30:46;;;;;;;3.92;1.83;;;;;;;;;;5113335;28;20020;-62
2021/05/11 16:33:13;;;;;;;2.95;1.98;;;;;;;;;;5114563;28;20474;-61
2021/05/11 16:35:38;;;;;;;7.15;2.40;;;;;;;;;;5114614;28;20438;-61
2021/05/11 16:38:04;;;;;;;4.30;2.13;;;;;;;;;;5114465;28;20061;-61
2021/05/11 16:40:30;;;;;;;3.17;1.65;;;;;;;;;;5114028;28;20015;-62
2021/05/11 16:42:56;;;;;;;2.95;1.85;;;;;;;;;;5114562;28;20035;-62
2021/05/11 16:45:22;;;;;;;4.57;2.33;;;;;;;;;;5113234;28;20020;-63
2021/05/11 16:47:54;;;;;;;1.85;1.48;;;;;;;;;;5114633;28;20023;-64
2021/05/11 16:50:27;;;;;;;3.58;2.40;;;;;;;;;;5114095;28;20496;-64
2021/05/11 16:52:53;;;;;;;3.15;2.10;;;;;;;;;;5114280;28;20070;-64
2021/05/11 16:55:19;;;;;;;5.65;3.00;;;;;;;;;;5114117;28;20023;-64
2021/05/11 16:57:50;;;;;;;2.85;2.40;;;;;;;;;;5113781;28;20023;-63
2021/05/11 17:00:21;;;;;;;3.53;2.90;;;;;;;;;;5114105;28;20028;-64
2021/05/11 17:02:46;;;;;;;5.32;2.83;;;;;;;;;;5114141;28;20035;-64
2021/05/11 17:05:12;;;;;;;3.33;2.33;;;;;;;;;;5114487;28;20064;-63
2021/05/11 17:07:38;;;;;;;3.85;2.53;;;;;;;;;;5114391;28;20027;-64
2021/05/11 17:10:04;;;;;;;3.03;2.22;;;;;;;;;;5114124;28;20024;-64
2021/05/11 17:12:30;;;;;;;3.63;2.70;;;;;;;;;;5113917;28;20536;-64
2021/05/11 17:14:56;;;;;;;3.75;2.50;;;;;;;;;;5113632;28;20015;-63
2021/05/11 17:17:21;;;;;;;3.42;2.20;;;;;;;;;;5112975;28;20485;-64
2021/05/11 17:19:47;;;;;;;3.70;2.47;;;;;;;;;;5113743;28;20015;-64
2021/05/11 17:22:13;;;;;;;3.45;2.45;;;;;;;;;;5112729;28;20038;-64
2021/05/11 17:24:38;;;;;;;5.18;2.33;;;;;;;;;;5112491;28;20024;-64
2021/05/11 17:27:04;;;;;;;2.42;2.22;;;;;;;;;;5112505;28;20123;-64
2021/05/11 17:29:29;;;;;;;3.90;2.40;;;;;;;;;;5113959;28;20370;-64
2021/05/11 17:31:55;;;;;;;4.28;2.50;;;;;;;;;;5112045;28;20099;-64
2021/05/11 17:34:20;;;;;;;3.25;2.33;;;;;;;;;;5111765;28;20024;-64
2021/05/11 17:36:46;;;;;;;5.30;2.33;;;;;;;;;;5113994;28;20027;-64
2021/05/11 17:39:11;;;;;;;3.75;3.15;;;;;;;;;;5113547;28;20350;-64
2021/05/11 17:41:37;;;;;;;2.42;2.22;;;;;;;;;;5111986;28;20028;-64
2021/05/11 17:44:03;;;;;;;3.63;2.50;;;;;;;;;;5113298;28;20055;-64
2021/05/11 17:46:28;;;;;;;3.35;2.20;;;;;;;;;;5113570;28;20385;-64
2021/05/11 17:48:54;;;;;;;4.30;2.42;;;;;;;;;;5113443;28;20020;-64
2021/05/11 17:51:21;;;;;;;3.80;2.85;;;;;;;;;;5113318;28;20028;-61
2021/05/11 17:53:47;;;;;;;2.20;2.08;;;;;;;;;;5115990;28;20015;-63
2021/05/11 17:56:12;;;;;;;2.70;2.50;;;;;;;;;;5117369;28;20032;-64
2021/05/11 17:58:37;;;;;;;2.80;2.50;;;;;;;;;;5117433;28;20027;-64
2021/05/11 18:01:03;;;;;;;8.45;2.60;;;;;;;;;;5117284;28;20068;-64
2021/05/11 18:03:30;;;;;;;4.10;2.60;;;;;;;;;;5117247;28;20021;-64
2021/05/11 18:05:56;;;;;;;3.95;3.00;;;;;;;;;;5117268;28;20385;-64
2021/05/11 18:08:29;;;;;;;4.28;3.60;;;;;;;;;;5117159;28;20059;-64
2021/05/11 18:10:56;;;;;;;5.43;3.10;;;;;;;;;;5116782;28;20039;-61
2021/05/11 18:13:21;;;;;;;5.95;3.10;;;;;;;;;;5115731;28;20073;-63
2021/05/11 18:15:47;;;;;;;4.97;2.65;;;;;;;;;;5116000;28;20020;-64
2021/05/11 18:18:12;;;;;;;5.32;2.47;;;;;;;;;;5117205;27;20004;-64
2021/05/11 18:20:38;;;;;;;3.00;2.60;;;;;;;;;;5116355;28;20085;-63
2021/05/11 18:23:03;;;;;;;2.92;2.50;;;;;;;;;;5117475;28;20019;-63
2021/05/11 18:25:29;;;;;;;6.45;3.00;;;;;;;;;;5117121;28;20118;-63
2021/05/11 18:27:54;;;;;;;12.27;2.92;;;;;;;;;;5115942;28;20024;-63
2021/05/11 18:30:21;;;;;;;5.30;3.30;;;;;;;;;;5116633;28;20028;-63
2021/05/11 18:32:47;;;;;;;3.58;2.85;;;;;;;;;;5117169;28;20041;-63
2021/05/11 18:35:14;;;;;;;2.95;2.65;;;;;;;;;;5117472;28;20035;-63
2021/05/11 18:37:51;;;;;;;5.55;2.58;;;;;;;;;;5117355;28;20023;-63
2021/05/11 18:40:16;;;;;;;7.53;2.85;;;;;;;;;;5115141;28;20477;-63
2021/05/11 18:42:42;;;;;;;3.63;2.65;;;;;;;;;;5116887;28;20031;-63
2021/05/11 18:45:08;;;;;;;3.95;2.58;;;;;;;;;;5116865;28;20107;-63
2021/05/11 18:47:33;;;;;;;4.43;3.05;;;;;;;;;;5116959;28;20016;-63
2021/05/11 18:49:59;;;;;;;4.88;3.00;;;;;;;;;;5116587;28;20027;-63
2021/05/11 18:52:24;;;;;;;3.60;2.90;;;;;;;;;;5116518;28;20026;-63
2021/05/11 18:54:52;;;;;;;4.55;2.90;;;;;;;;;;5116683;28;20028;-62
2021/05/11 18:57:18;;;;;;;4.53;2.90;;;;;;;;;;5116437;28;20012;-62
2021/05/11 18:59:44;;;;;;;3.47;2.70;;;;;;;;;;5116613;28;20476;-62
2021/05/11 19:02:10;;;;;;;3.03;2.78;;;;;;;;;;5116517;28;20065;-62
2021/05/11 19:04:36;;;;;;;3.65;2.92;;;;;;;;;;5116114;28;20027;-62
2021/05/11 19:07:01;;;;;;;6.00;2.75;;;;;;;;;;5116245;28;20011;-63
2021/05/11 19:09:27;;;;;;;3.28;3.00;;;;;;;;;;5116131;28;20469;-63
2021/05/11 19:11:52;;;;;;;5.30;3.65;;;;;;;;;;5114985;28;20099;-63
2021/05/11 19:14:20;;;;;;;4.43;2.92;;;;;;;;;;5116234;28;20062;-63